sensor_id;sensor_type;location;lat;lon;timestamp;P1;durP1;ratioP1;P2;durP2;ratioP2
8482;SDS011;4278;42.668;23.312;2022-12-18T00:00:42;6.77;;;4.60;;
8482;SDS011;4278;42.668;23.312;2022-12-18T00:03:10;5.67;;;4.03;;
8482;SDS011;4278;42.668;23.312;2022-12-18T00:05:37;7.93;;;5.03;;
8482;SDS011;4278;42.668;23.312;2022-12-18T00:08:12;7.73;;;4.90;;
8482;SDS011;4278;42.668;23.312;2022-12-18T00:10:39;7.77;;;4.90;;
8482;SDS011;4278;42.668;23.312;2022-12-18T00:13:06;7.23;;;4.10;;
8482;SDS011;4278;42.668;23.312;2022-12-18T00:15:33;6.33;;;4.57;;
8482;SDS011;4278;42.668;23.312;2022-12-18T00:18:00;5.87;;;3.80;;
8482;SDS011;4278;42.668;23.312;2022-12-18T00:20:28;7.33;;;5.23;;
8482;SDS011;4278;42.668;23.312;2022-12-18T00:22:55;5.63;;;4.43;;
8482;SDS011;4278;42.668;23.312;2022-12-18T00:25:22;9.80;;;4.97;;
8482;SDS011;4278;42.668;23.312;2022-12-18T00:27:49;9.30;;;5.77;;
8482;SDS011;4278;42.668;23.312;2022-12-18T00:30:16;7.90;;;5.63;;
8482;SDS011;4278;42.668;23.312;2022-12-18T00:32:43;9.20;;;5.20;;
8482;SDS011;4278;42.668;23.312;2022-12-18T00:35:10;8.47;;;5.43;;
8482;SDS011;4278;42.668;23.312;2022-12-18T00:37:38;10.17;;;5.80;;
8482;SDS011;4278;42.668;23.312;2022-12-18T00:40:05;9.00;;;5.67;;
8482;SDS011;4278;42.668;23.312;2022-12-18T00:42:35;7.33;;;5.30;;
8482;SDS011;4278;42.668;23.312;2022-12-18T00:45:19;9.87;;;5.73;;
8482;SDS011;4278;42.668;23.312;2022-12-18T00:47:53;9.20;;;6.00;;
8482;SDS011;4278;42.668;23.312;2022-12-18T00:50:22;9.17;;;5.60;;
8482;SDS011;4278;42.668;23.312;2022-12-18T00:52:51;9.93;;;6.13;;
8482;SDS011;4278;42.668;23.312;2022-12-18T00:55:18;12.17;;;6.30;;
8482;SDS011;4278;42.668;23.312;2022-12-18T00:57:45;10.77;;;6.27;;
8482;SDS011;4278;42.668;23.312;2022-12-18T01:00:12;10.60;;;6.23;;
8482;SDS011;4278;42.668;23.312;2022-12-18T01:02:41;7.63;;;5.77;;
8482;SDS011;4278;42.668;23.312;2022-12-18T01:05:08;8.50;;;6.00;;
8482;SDS011;4278;42.668;23.312;2022-12-18T01:07:35;9.03;;;6.17;;
8482;SDS011;4278;42.668;23.312;2022-12-18T01:10:05;8.63;;;5.83;;
8482;SDS011;4278;42.668;23.312;2022-12-18T01:12:33;11.23;;;6.77;;
8482;SDS011;4278;42.668;23.312;2022-12-18T01:14:59;11.03;;;6.53;;
8482;SDS011;4278;42.668;23.312;2022-12-18T01:17:26;9.73;;;6.83;;
8482;SDS011;4278;42.668;23.312;2022-12-18T01:19:53;10.30;;;6.03;;
8482;SDS011;4278;42.668;23.312;2022-12-18T01:22:20;9.47;;;6.30;;
8482;SDS011;4278;42.668;23.312;2022-12-18T01:24:47;8.60;;;5.73;;
8482;SDS011;4278;42.668;23.312;2022-12-18T01:27:15;11.20;;;6.83;;
8482;SDS011;4278;42.668;23.312;2022-12-18T01:29:42;10.57;;;6.27;;
8482;SDS011;4278;42.668;23.312;2022-12-18T01:32:09;8.77;;;5.83;;
8482;SDS011;4278;42.668;23.312;2022-12-18T01:34:36;9.77;;;6.10;;
8482;SDS011;4278;42.668;23.312;2022-12-18T01:37:03;9.87;;;6.33;;
8482;SDS011;4278;42.668;23.312;2022-12-18T01:39:30;10.20;;;5.90;;
8482;SDS011;4278;42.668;23.312;2022-12-18T01:41:58;14.00;;;6.73;;
8482;SDS011;4278;42.668;23.312;2022-12-18T01:47:47;10.20;;;6.60;;
8482;SDS011;4278;42.668;23.312;2022-12-18T01:50:17;9.60;;;5.87;;
8482;SDS011;4278;42.668;23.312;2022-12-18T01:52:49;8.17;;;5.60;;
8482;SDS011;4278;42.668;23.312;2022-12-18T01:55:20;10.50;;;6.37;;
8482;SDS011;4278;42.668;23.312;2022-12-18T01:57:50;10.10;;;6.10;;
8482;SDS011;4278;42.668;23.312;2022-12-18T02:00:22;10.37;;;5.80;;
8482;SDS011;4278;42.668;23.312;2022-12-18T02:02:50;9.90;;;6.40;;
8482;SDS011;4278;42.668;23.312;2022-12-18T02:05:17;7.93;;;5.60;;
8482;SDS011;4278;42.668;23.312;2022-12-18T02:07:52;11.63;;;6.60;;
8482;SDS011;4278;42.668;23.312;2022-12-18T02:10:29;8.53;;;6.27;;
8482;SDS011;4278;42.668;23.312;2022-12-18T02:13:09;11.97;;;7.07;;
8482;SDS011;4278;42.668;23.312;2022-12-18T02:15:43;8.23;;;5.93;;
8482;SDS011;4278;42.668;23.312;2022-12-18T02:18:18;9.27;;;6.23;;
8482;SDS011;4278;42.668;23.312;2022-12-18T02:20:48;11.60;;;6.83;;
8482;SDS011;4278;42.668;23.312;2022-12-18T02:23:24;10.20;;;6.80;;
8482;SDS011;4278;42.668;23.312;2022-12-18T02:26:08;9.73;;;6.20;;
8482;SDS011;4278;42.668;23.312;2022-12-18T02:28:45;10.57;;;6.23;;
8482;SDS011;4278;42.668;23.312;2022-12-18T02:31:17;9.83;;;6.47;;
8482;SDS011;4278;42.668;23.312;2022-12-18T02:33:51;11.17;;;6.67;;
8482;SDS011;4278;42.668;23.312;2022-12-18T02:36:23;10.57;;;6.47;;
8482;SDS011;4278;42.668;23.312;2022-12-18T02:38:51;10.20;;;6.20;;
8482;SDS011;4278;42.668;23.312;2022-12-18T02:41:24;9.20;;;6.30;;
8482;SDS011;4278;42.668;23.312;2022-12-18T02:43:53;11.37;;;6.00;;
8482;SDS011;4278;42.668;23.312;2022-12-18T02:46:27;7.83;;;5.43;;
8482;SDS011;4278;42.668;23.312;2022-12-18T02:48:59;11.03;;;6.13;;
8482;SDS011;4278;42.668;23.312;2022-12-18T02:51:33;10.37;;;6.37;;
8482;SDS011;4278;42.668;23.312;2022-12-18T02:54:09;9.60;;;5.53;;
8482;SDS011;4278;42.668;23.312;2022-12-18T02:56:46;7.57;;;5.57;;
8482;SDS011;4278;42.668;23.312;2022-12-18T02:59:17;10.40;;;5.90;;
8482;SDS011;4278;42.668;23.312;2022-12-18T03:01:52;7.57;;;5.40;;
8482;SDS011;4278;42.668;23.312;2022-12-18T03:04:25;10.63;;;6.40;;
8482;SDS011;4278;42.668;23.312;2022-12-18T03:06:55;10.70;;;6.00;;
8482;SDS011;4278;42.668;23.312;2022-12-18T03:09:28;12.97;;;5.97;;
8482;SDS011;4278;42.668;23.312;2022-12-18T03:12:02;11.17;;;6.37;;
8482;SDS011;4278;42.668;23.312;2022-12-18T03:14:53;9.40;;;5.43;;
8482;SDS011;4278;42.668;23.312;2022-12-18T03:17:25;7.67;;;5.67;;
8482;SDS011;4278;42.668;23.312;2022-12-18T03:19:54;9.73;;;5.77;;
8482;SDS011;4278;42.668;23.312;2022-12-18T03:22:24;9.13;;;5.20;;
8482;SDS011;4278;42.668;23.312;2022-12-18T03:24:56;7.50;;;5.43;;
8482;SDS011;4278;42.668;23.312;2022-12-18T03:27:25;9.10;;;5.47;;
8482;SDS011;4278;42.668;23.312;2022-12-18T03:29:55;10.70;;;5.63;;
8482;SDS011;4278;42.668;23.312;2022-12-18T03:32:33;8.57;;;5.77;;
8482;SDS011;4278;42.668;23.312;2022-12-18T03:35:07;9.27;;;5.80;;
8482;SDS011;4278;42.668;23.312;2022-12-18T03:37:37;8.93;;;6.10;;
8482;SDS011;4278;42.668;23.312;2022-12-18T03:40:05;9.90;;;6.10;;
8482;SDS011;4278;42.668;23.312;2022-12-18T03:42:36;11.17;;;5.97;;
8482;SDS011;4278;42.668;23.312;2022-12-18T03:45:11;11.43;;;5.53;;
8482;SDS011;4278;42.668;23.312;2022-12-18T03:47:46;9.40;;;5.30;;
8482;SDS011;4278;42.668;23.312;2022-12-18T03:50:25;8.37;;;5.63;;
8482;SDS011;4278;42.668;23.312;2022-12-18T03:52:59;8.57;;;5.67;;
8482;SDS011;4278;42.668;23.312;2022-12-18T03:55:34;10.37;;;6.07;;
8482;SDS011;4278;42.668;23.312;2022-12-18T03:58:04;9.07;;;6.07;;
8482;SDS011;4278;42.668;23.312;2022-12-18T04:00:33;9.37;;;5.23;;
8482;SDS011;4278;42.668;23.312;2022-12-18T04:03:01;11.37;;;6.07;;
8482;SDS011;4278;42.668;23.312;2022-12-18T04:05:30;7.97;;;5.57;;
8482;SDS011;4278;42.668;23.312;2022-12-18T04:08:00;12.90;;;5.73;;
8482;SDS011;4278;42.668;23.312;2022-12-18T04:10:28;7.87;;;5.30;;
8482;SDS011;4278;42.668;23.312;2022-12-18T04:12:55;7.50;;;4.80;;
8482;SDS011;4278;42.668;23.312;2022-12-18T04:15:25;7.87;;;5.73;;
8482;SDS011;4278;42.668;23.312;2022-12-18T04:17:52;7.43;;;4.97;;
8482;SDS011;4278;42.668;23.312;2022-12-18T04:20:19;7.40;;;5.43;;
8482;SDS011;4278;42.668;23.312;2022-12-18T04:22:46;9.80;;;6.43;;
8482;SDS011;4278;42.668;23.312;2022-12-18T04:25:13;9.67;;;5.37;;
8482;SDS011;4278;42.668;23.312;2022-12-18T04:27:40;9.23;;;5.83;;
8482;SDS011;4278;42.668;23.312;2022-12-18T04:30:07;10.13;;;6.50;;
8482;SDS011;4278;42.668;23.312;2022-12-18T04:32:36;8.40;;;5.50;;
8482;SDS011;4278;42.668;23.312;2022-12-18T04:35:03;9.73;;;6.73;;
8482;SDS011;4278;42.668;23.312;2022-12-18T04:37:33;9.50;;;5.93;;
8482;SDS011;4278;42.668;23.312;2022-12-18T04:40:00;9.37;;;6.10;;
8482;SDS011;4278;42.668;23.312;2022-12-18T04:42:27;9.33;;;5.90;;
8482;SDS011;4278;42.668;23.312;2022-12-18T04:44:53;11.13;;;6.40;;
8482;SDS011;4278;42.668;23.312;2022-12-18T04:47:20;12.27;;;5.87;;
8482;SDS011;4278;42.668;23.312;2022-12-18T04:49:48;11.10;;;6.77;;
8482;SDS011;4278;42.668;23.312;2022-12-18T04:52:15;10.80;;;6.80;;
8482;SDS011;4278;42.668;23.312;2022-12-18T04:54:42;15.67;;;7.10;;
8482;SDS011;4278;42.668;23.312;2022-12-18T04:57:09;11.70;;;6.83;;
8482;SDS011;4278;42.668;23.312;2022-12-18T04:59:35;9.70;;;6.67;;
8482;SDS011;4278;42.668;23.312;2022-12-18T05:02:02;10.93;;;6.40;;
8482;SDS011;4278;42.668;23.312;2022-12-18T05:04:29;11.83;;;6.43;;
8482;SDS011;4278;42.668;23.312;2022-12-18T05:06:57;10.83;;;6.90;;
8482;SDS011;4278;42.668;23.312;2022-12-18T05:09:24;12.37;;;7.10;;
8482;SDS011;4278;42.668;23.312;2022-12-18T05:11:51;10.33;;;6.43;;
8482;SDS011;4278;42.668;23.312;2022-12-18T05:14:18;11.33;;;7.33;;
8482;SDS011;4278;42.668;23.312;2022-12-18T05:16:44;12.20;;;7.03;;
8482;SDS011;4278;42.668;23.312;2022-12-18T05:19:11;13.67;;;7.20;;
8482;SDS011;4278;42.668;23.312;2022-12-18T05:21:38;13.43;;;7.60;;
8482;SDS011;4278;42.668;23.312;2022-12-18T05:24:06;13.37;;;7.43;;
8482;SDS011;4278;42.668;23.312;2022-12-18T05:26:33;13.27;;;7.27;;
8482;SDS011;4278;42.668;23.312;2022-12-18T05:29:00;11.40;;;7.13;;
8482;SDS011;4278;42.668;23.312;2022-12-18T05:31:27;12.60;;;7.53;;
8482;SDS011;4278;42.668;23.312;2022-12-18T05:33:54;13.07;;;7.20;;
8482;SDS011;4278;42.668;23.312;2022-12-18T05:36:21;11.90;;;6.70;;
8482;SDS011;4278;42.668;23.312;2022-12-18T05:38:47;13.37;;;7.83;;
8482;SDS011;4278;42.668;23.312;2022-12-18T05:41:15;11.83;;;7.07;;
8482;SDS011;4278;42.668;23.312;2022-12-18T05:43:42;13.17;;;7.37;;
8482;SDS011;4278;42.668;23.312;2022-12-18T05:46:11;14.37;;;7.07;;
8482;SDS011;4278;42.668;23.312;2022-12-18T05:48:39;14.07;;;6.97;;
8482;SDS011;4278;42.668;23.312;2022-12-18T05:51:06;13.57;;;7.40;;
8482;SDS011;4278;42.668;23.312;2022-12-18T05:53:35;13.23;;;7.53;;
8482;SDS011;4278;42.668;23.312;2022-12-18T05:56:03;15.53;;;7.13;;
8482;SDS011;4278;42.668;23.312;2022-12-18T05:58:33;14.93;;;8.57;;
8482;SDS011;4278;42.668;23.312;2022-12-18T06:01:05;13.43;;;7.90;;
8482;SDS011;4278;42.668;23.312;2022-12-18T06:03:34;13.47;;;7.43;;
8482;SDS011;4278;42.668;23.312;2022-12-18T06:06:01;15.97;;;8.73;;
8482;SDS011;4278;42.668;23.312;2022-12-18T06:08:28;14.33;;;7.83;;
8482;SDS011;4278;42.668;23.312;2022-12-18T06:10:55;12.27;;;7.63;;
8482;SDS011;4278;42.668;23.312;2022-12-18T06:13:22;17.33;;;9.00;;
8482;SDS011;4278;42.668;23.312;2022-12-18T06:15:50;15.30;;;9.07;;
8482;SDS011;4278;42.668;23.312;2022-12-18T06:18:19;14.77;;;8.63;;
8482;SDS011;4278;42.668;23.312;2022-12-18T06:20:53;12.87;;;7.93;;
8482;SDS011;4278;42.668;23.312;2022-12-18T06:23:21;14.87;;;8.57;;
8482;SDS011;4278;42.668;23.312;2022-12-18T06:25:47;16.63;;;8.27;;
8482;SDS011;4278;42.668;23.312;2022-12-18T06:28:14;13.30;;;7.87;;
8482;SDS011;4278;42.668;23.312;2022-12-18T06:30:42;12.97;;;8.30;;
8482;SDS011;4278;42.668;23.312;2022-12-18T06:33:11;13.93;;;7.90;;
8482;SDS011;4278;42.668;23.312;2022-12-18T06:35:38;14.57;;;8.20;;
8482;SDS011;4278;42.668;23.312;2022-12-18T06:38:05;14.90;;;8.13;;
8482;SDS011;4278;42.668;23.312;2022-12-18T06:40:32;17.40;;;8.13;;
8482;SDS011;4278;42.668;23.312;2022-12-18T06:42:59;15.97;;;9.03;;
8482;SDS011;4278;42.668;23.312;2022-12-18T06:45:26;15.40;;;8.50;;
8482;SDS011;4278;42.668;23.312;2022-12-18T06:47:52;13.93;;;8.40;;
8482;SDS011;4278;42.668;23.312;2022-12-18T06:50:21;16.97;;;9.27;;
8482;SDS011;4278;42.668;23.312;2022-12-18T06:52:48;14.90;;;7.77;;
8482;SDS011;4278;42.668;23.312;2022-12-18T06:55:15;11.83;;;6.20;;
8482;SDS011;4278;42.668;23.312;2022-12-18T06:57:41;13.73;;;7.77;;
8482;SDS011;4278;42.668;23.312;2022-12-18T07:00:08;13.20;;;7.60;;
8482;SDS011;4278;42.668;23.312;2022-12-18T07:02:36;13.77;;;7.93;;
8482;SDS011;4278;42.668;23.312;2022-12-18T07:05:03;13.83;;;7.93;;
8482;SDS011;4278;42.668;23.312;2022-12-18T07:07:32;15.07;;;8.10;;
8482;SDS011;4278;42.668;23.312;2022-12-18T07:09:59;13.50;;;7.77;;
8482;SDS011;4278;42.668;23.312;2022-12-18T07:15:11;14.80;;;8.10;;
8482;SDS011;4278;42.668;23.312;2022-12-18T07:17:38;18.33;;;9.20;;
8482;SDS011;4278;42.668;23.312;2022-12-18T07:20:06;14.10;;;8.83;;
8482;SDS011;4278;42.668;23.312;2022-12-18T07:22:35;16.83;;;8.60;;
8482;SDS011;4278;42.668;23.312;2022-12-18T07:25:01;12.43;;;7.80;;
8482;SDS011;4278;42.668;23.312;2022-12-18T07:27:28;17.33;;;8.63;;
8482;SDS011;4278;42.668;23.312;2022-12-18T07:29:55;13.10;;;8.27;;
8482;SDS011;4278;42.668;23.312;2022-12-18T07:32:22;14.80;;;7.77;;
8482;SDS011;4278;42.668;23.312;2022-12-18T07:34:49;13.43;;;7.50;;
8482;SDS011;4278;42.668;23.312;2022-12-18T07:37:15;17.10;;;8.03;;
8482;SDS011;4278;42.668;23.312;2022-12-18T07:39:43;13.83;;;8.10;;
8482;SDS011;4278;42.668;23.312;2022-12-18T07:42:10;15.30;;;9.07;;
8482;SDS011;4278;42.668;23.312;2022-12-18T07:44:55;17.47;;;9.07;;
8482;SDS011;4278;42.668;23.312;2022-12-18T07:47:21;15.33;;;8.77;;
8482;SDS011;4278;42.668;23.312;2022-12-18T07:49:48;16.23;;;8.33;;
8482;SDS011;4278;42.668;23.312;2022-12-18T07:52:15;15.73;;;9.17;;
8482;SDS011;4278;42.668;23.312;2022-12-18T07:54:43;18.80;;;9.80;;
8482;SDS011;4278;42.668;23.312;2022-12-18T07:57:10;19.47;;;10.77;;
8482;SDS011;4278;42.668;23.312;2022-12-18T07:59:44;19.33;;;10.07;;
8482;SDS011;4278;42.668;23.312;2022-12-18T08:02:11;24.07;;;12.10;;
8482;SDS011;4278;42.668;23.312;2022-12-18T08:04:38;18.23;;;9.50;;
8482;SDS011;4278;42.668;23.312;2022-12-18T08:07:04;18.73;;;9.67;;
8482;SDS011;4278;42.668;23.312;2022-12-18T08:09:31;18.53;;;9.07;;
8482;SDS011;4278;42.668;23.312;2022-12-18T08:11:59;17.53;;;8.97;;
8482;SDS011;4278;42.668;23.312;2022-12-18T08:14:26;18.70;;;10.00;;
8482;SDS011;4278;42.668;23.312;2022-12-18T08:16:53;19.70;;;10.17;;
8482;SDS011;4278;42.668;23.312;2022-12-18T08:19:20;19.80;;;10.30;;
8482;SDS011;4278;42.668;23.312;2022-12-18T08:21:46;20.60;;;10.80;;
8482;SDS011;4278;42.668;23.312;2022-12-18T08:24:13;17.40;;;8.43;;
8482;SDS011;4278;42.668;23.312;2022-12-18T08:26:40;19.77;;;9.73;;
8482;SDS011;4278;42.668;23.312;2022-12-18T08:29:08;20.93;;;10.70;;
8482;SDS011;4278;42.668;23.312;2022-12-18T08:31:36;18.40;;;10.57;;
8482;SDS011;4278;42.668;23.312;2022-12-18T08:34:02;20.90;;;10.53;;
8482;SDS011;4278;42.668;23.312;2022-12-18T08:36:29;19.40;;;10.53;;
8482;SDS011;4278;42.668;23.312;2022-12-18T08:38:56;19.63;;;10.00;;
8482;SDS011;4278;42.668;23.312;2022-12-18T08:41:23;22.27;;;10.37;;
8482;SDS011;4278;42.668;23.312;2022-12-18T08:43:50;18.07;;;9.37;;
8482;SDS011;4278;42.668;23.312;2022-12-18T08:46:36;22.00;;;10.60;;
8482;SDS011;4278;42.668;23.312;2022-12-18T08:49:05;19.17;;;10.23;;
8482;SDS011;4278;42.668;23.312;2022-12-18T08:51:32;24.53;;;11.23;;
8482;SDS011;4278;42.668;23.312;2022-12-18T08:54:00;23.33;;;12.07;;
8482;SDS011;4278;42.668;23.312;2022-12-18T08:56:27;22.03;;;11.83;;
8482;SDS011;4278;42.668;23.312;2022-12-18T08:58:55;19.10;;;10.70;;
8482;SDS011;4278;42.668;23.312;2022-12-18T09:01:22;19.67;;;11.07;;
8482;SDS011;4278;42.668;23.312;2022-12-18T09:03:51;21.93;;;11.20;;
8482;SDS011;4278;42.668;23.312;2022-12-18T09:06:19;22.13;;;11.50;;
8482;SDS011;4278;42.668;23.312;2022-12-18T09:08:47;25.83;;;12.20;;
8482;SDS011;4278;42.668;23.312;2022-12-18T09:11:14;22.97;;;11.10;;
8482;SDS011;4278;42.668;23.312;2022-12-18T09:13:44;24.70;;;11.87;;
8482;SDS011;4278;42.668;23.312;2022-12-18T09:16:11;20.90;;;11.63;;
8482;SDS011;4278;42.668;23.312;2022-12-18T09:18:38;21.73;;;11.10;;
8482;SDS011;4278;42.668;23.312;2022-12-18T09:21:10;18.47;;;11.53;;
8482;SDS011;4278;42.668;23.312;2022-12-18T09:23:37;23.10;;;10.97;;
8482;SDS011;4278;42.668;23.312;2022-12-18T09:26:04;20.83;;;11.60;;
8482;SDS011;4278;42.668;23.312;2022-12-18T09:28:31;17.10;;;9.47;;
8482;SDS011;4278;42.668;23.312;2022-12-18T09:30:58;19.90;;;9.67;;
8482;SDS011;4278;42.668;23.312;2022-12-18T09:33:25;20.30;;;10.80;;
8482;SDS011;4278;42.668;23.312;2022-12-18T09:35:52;17.43;;;9.70;;
8482;SDS011;4278;42.668;23.312;2022-12-18T09:38:20;18.87;;;10.27;;
8482;SDS011;4278;42.668;23.312;2022-12-18T09:40:49;20.10;;;10.07;;
8482;SDS011;4278;42.668;23.312;2022-12-18T09:43:18;15.43;;;9.17;;
8482;SDS011;4278;42.668;23.312;2022-12-18T09:45:50;17.40;;;10.07;;
8482;SDS011;4278;42.668;23.312;2022-12-18T09:48:27;19.23;;;10.97;;
8482;SDS011;4278;42.668;23.312;2022-12-18T09:50:59;16.57;;;9.07;;
8482;SDS011;4278;42.668;23.312;2022-12-18T09:53:31;19.70;;;8.90;;
8482;SDS011;4278;42.668;23.312;2022-12-18T09:56:01;22.77;;;10.97;;
8482;SDS011;4278;42.668;23.312;2022-12-18T09:58:31;21.63;;;10.13;;
8482;SDS011;4278;42.668;23.312;2022-12-18T10:01:06;18.33;;;8.77;;
8482;SDS011;4278;42.668;23.312;2022-12-18T10:03:37;17.53;;;9.30;;
8482;SDS011;4278;42.668;23.312;2022-12-18T10:06:05;18.53;;;8.67;;
8482;SDS011;4278;42.668;23.312;2022-12-18T10:08:41;15.83;;;9.30;;
8482;SDS011;4278;42.668;23.312;2022-12-18T10:11:24;17.27;;;8.90;;
8482;SDS011;4278;42.668;23.312;2022-12-18T10:14:01;18.50;;;10.10;;
8482;SDS011;4278;42.668;23.312;2022-12-18T10:16:36;19.67;;;10.27;;
8482;SDS011;4278;42.668;23.312;2022-12-18T10:19:16;16.67;;;8.33;;
8482;SDS011;4278;42.668;23.312;2022-12-18T10:21:51;18.50;;;8.67;;
8482;SDS011;4278;42.668;23.312;2022-12-18T10:24:28;16.57;;;8.53;;
8482;SDS011;4278;42.668;23.312;2022-12-18T10:27:07;18.13;;;8.93;;
8482;SDS011;4278;42.668;23.312;2022-12-18T10:29:38;15.80;;;8.63;;
8482;SDS011;4278;42.668;23.312;2022-12-18T10:32:06;14.20;;;8.03;;
8482;SDS011;4278;42.668;23.312;2022-12-18T10:34:38;16.30;;;8.70;;
8482;SDS011;4278;42.668;23.312;2022-12-18T10:37:06;15.77;;;9.43;;
8482;SDS011;4278;42.668;23.312;2022-12-18T10:39:39;17.23;;;9.57;;
8482;SDS011;4278;42.668;23.312;2022-12-18T10:42:10;16.17;;;8.47;;
8482;SDS011;4278;42.668;23.312;2022-12-18T10:44:40;17.67;;;9.10;;
8482;SDS011;4278;42.668;23.312;2022-12-18T10:47:11;17.63;;;8.60;;
8482;SDS011;4278;42.668;23.312;2022-12-18T10:49:42;18.10;;;9.37;;
8482;SDS011;4278;42.668;23.312;2022-12-18T10:52:15;19.80;;;9.47;;
8482;SDS011;4278;42.668;23.312;2022-12-18T10:54:50;18.57;;;9.77;;
8482;SDS011;4278;42.668;23.312;2022-12-18T10:57:29;19.83;;;9.47;;
8482;SDS011;4278;42.668;23.312;2022-12-18T10:59:59;19.67;;;10.27;;
8482;SDS011;4278;42.668;23.312;2022-12-18T11:02:46;19.23;;;8.73;;
8482;SDS011;4278;42.668;23.312;2022-12-18T11:05:23;16.50;;;8.67;;
8482;SDS011;4278;42.668;23.312;2022-12-18T11:07:52;16.37;;;8.70;;
8482;SDS011;4278;42.668;23.312;2022-12-18T11:10:22;18.13;;;9.53;;
8482;SDS011;4278;42.668;23.312;2022-12-18T11:12:53;19.20;;;8.67;;
8482;SDS011;4278;42.668;23.312;2022-12-18T11:15:21;16.60;;;7.90;;
8482;SDS011;4278;42.668;23.312;2022-12-18T11:17:52;15.97;;;8.70;;
8482;SDS011;4278;42.668;23.312;2022-12-18T11:20:20;14.93;;;8.07;;
8482;SDS011;4278;42.668;23.312;2022-12-18T11:22:54;15.63;;;8.07;;
8482;SDS011;4278;42.668;23.312;2022-12-18T11:25:24;16.80;;;8.23;;
8482;SDS011;4278;42.668;23.312;2022-12-18T11:27:55;14.80;;;8.53;;
8482;SDS011;4278;42.668;23.312;2022-12-18T11:30:25;17.70;;;8.40;;
8482;SDS011;4278;42.668;23.312;2022-12-18T11:32:55;21.70;;;9.07;;
8482;SDS011;4278;42.668;23.312;2022-12-18T11:35:34;14.53;;;8.07;;
8482;SDS011;4278;42.668;23.312;2022-12-18T11:38:04;15.03;;;8.60;;
8482;SDS011;4278;42.668;23.312;2022-12-18T11:40:42;16.67;;;8.03;;
8482;SDS011;4278;42.668;23.312;2022-12-18T11:43:14;16.33;;;8.63;;
8482;SDS011;4278;42.668;23.312;2022-12-18T11:45:49;16.30;;;8.60;;
8482;SDS011;4278;42.668;23.312;2022-12-18T11:48:21;11.97;;;7.17;;
8482;SDS011;4278;42.668;23.312;2022-12-18T11:50:52;16.90;;;7.90;;
8482;SDS011;4278;42.668;23.312;2022-12-18T11:53:21;13.43;;;6.87;;
8482;SDS011;4278;42.668;23.312;2022-12-18T11:55:54;15.80;;;8.37;;
8482;SDS011;4278;42.668;23.312;2022-12-18T11:58:30;14.00;;;7.80;;
8482;SDS011;4278;42.668;23.312;2022-12-18T12:01:10;15.50;;;7.73;;
8482;SDS011;4278;42.668;23.312;2022-12-18T12:06:43;17.67;;;8.83;;
8482;SDS011;4278;42.668;23.312;2022-12-18T12:09:20;15.23;;;8.23;;
8482;SDS011;4278;42.668;23.312;2022-12-18T12:12:01;16.50;;;8.93;;
8482;SDS011;4278;42.668;23.312;2022-12-18T12:14:43;17.77;;;8.90;;
8482;SDS011;4278;42.668;23.312;2022-12-18T12:17:21;17.87;;;8.30;;
8482;SDS011;4278;42.668;23.312;2022-12-18T12:19:57;17.30;;;9.77;;
8482;SDS011;4278;42.668;23.312;2022-12-18T12:22:35;15.77;;;7.93;;
8482;SDS011;4278;42.668;23.312;2022-12-18T12:25:14;29.93;;;16.43;;
8482;SDS011;4278;42.668;23.312;2022-12-18T12:27:50;18.90;;;9.23;;
8482;SDS011;4278;42.668;23.312;2022-12-18T12:30:27;20.07;;;9.77;;
8482;SDS011;4278;42.668;23.312;2022-12-18T12:33:05;16.17;;;9.30;;
8482;SDS011;4278;42.668;23.312;2022-12-18T12:35:45;18.33;;;8.30;;
8482;SDS011;4278;42.668;23.312;2022-12-18T12:38:17;15.10;;;8.77;;
8482;SDS011;4278;42.668;23.312;2022-12-18T12:40:49;18.70;;;9.53;;
8482;SDS011;4278;42.668;23.312;2022-12-18T12:43:23;16.83;;;8.37;;
8482;SDS011;4278;42.668;23.312;2022-12-18T12:45:55;17.13;;;9.30;;
8482;SDS011;4278;42.668;23.312;2022-12-18T12:48:37;18.57;;;9.40;;
8482;SDS011;4278;42.668;23.312;2022-12-18T12:51:12;17.23;;;8.47;;
8482;SDS011;4278;42.668;23.312;2022-12-18T12:53:43;17.07;;;9.17;;
8482;SDS011;4278;42.668;23.312;2022-12-18T12:56:11;23.70;;;11.70;;
8482;SDS011;4278;42.668;23.312;2022-12-18T12:58:44;18.37;;;10.50;;
8482;SDS011;4278;42.668;23.312;2022-12-18T13:01:18;16.27;;;9.03;;
8482;SDS011;4278;42.668;23.312;2022-12-18T13:03:55;18.47;;;9.97;;
8482;SDS011;4278;42.668;23.312;2022-12-18T13:06:36;19.33;;;10.17;;
8482;SDS011;4278;42.668;23.312;2022-12-18T13:09:08;17.97;;;9.40;;
8482;SDS011;4278;42.668;23.312;2022-12-18T13:11:36;23.23;;;10.53;;
8482;SDS011;4278;42.668;23.312;2022-12-18T13:14:24;17.97;;;10.17;;
8482;SDS011;4278;42.668;23.312;2022-12-18T13:19:43;20.03;;;10.50;;
8482;SDS011;4278;42.668;23.312;2022-12-18T13:22:20;20.00;;;9.80;;
8482;SDS011;4278;42.668;23.312;2022-12-18T13:24:49;17.40;;;9.67;;
8482;SDS011;4278;42.668;23.312;2022-12-18T13:36:26;16.47;;;8.87;;
8482;SDS011;4278;42.668;23.312;2022-12-18T13:50:59;17.20;;;9.43;;
8482;SDS011;4278;42.668;23.312;2022-12-18T13:53:29;16.57;;;9.03;;
8482;SDS011;4278;42.668;23.312;2022-12-18T13:56:00;16.67;;;9.43;;
8482;SDS011;4278;42.668;23.312;2022-12-18T13:58:28;22.13;;;9.93;;
8482;SDS011;4278;42.668;23.312;2022-12-18T14:00:55;18.67;;;8.43;;
8482;SDS011;4278;42.668;23.312;2022-12-18T14:03:25;18.00;;;9.70;;
8482;SDS011;4278;42.668;23.312;2022-12-18T14:05:55;15.03;;;8.90;;
8482;SDS011;4278;42.668;23.312;2022-12-18T14:08:27;15.37;;;8.60;;
8482;SDS011;4278;42.668;23.312;2022-12-18T14:11:00;15.13;;;8.60;;
8482;SDS011;4278;42.668;23.312;2022-12-18T14:13:30;16.73;;;8.70;;
8482;SDS011;4278;42.668;23.312;2022-12-18T14:16:00;16.10;;;8.23;;
8482;SDS011;4278;42.668;23.312;2022-12-18T14:18:31;15.07;;;8.23;;
8482;SDS011;4278;42.668;23.312;2022-12-18T14:21:06;13.20;;;7.30;;
8482;SDS011;4278;42.668;23.312;2022-12-18T14:23:43;14.10;;;8.23;;
8482;SDS011;4278;42.668;23.312;2022-12-18T14:26:19;15.10;;;8.07;;
8482;SDS011;4278;42.668;23.312;2022-12-18T14:28:48;15.07;;;8.10;;
8482;SDS011;4278;42.668;23.312;2022-12-18T14:31:18;14.40;;;7.30;;
8482;SDS011;4278;42.668;23.312;2022-12-18T14:33:46;15.40;;;8.13;;
8482;SDS011;4278;42.668;23.312;2022-12-18T14:36:16;14.07;;;8.17;;
8482;SDS011;4278;42.668;23.312;2022-12-18T14:38:47;17.93;;;8.33;;
8482;SDS011;4278;42.668;23.312;2022-12-18T14:41:19;15.73;;;7.70;;
8482;SDS011;4278;42.668;23.312;2022-12-18T14:43:47;16.03;;;7.67;;
8482;SDS011;4278;42.668;23.312;2022-12-18T14:46:26;15.93;;;7.57;;
8482;SDS011;4278;42.668;23.312;2022-12-18T14:48:57;13.17;;;7.27;;
8482;SDS011;4278;42.668;23.312;2022-12-18T14:51:27;20.50;;;8.33;;
8482;SDS011;4278;42.668;23.312;2022-12-18T14:53:56;17.77;;;7.80;;
8482;SDS011;4278;42.668;23.312;2022-12-18T14:56:26;16.37;;;8.97;;
8482;SDS011;4278;42.668;23.312;2022-12-18T14:58:55;14.73;;;7.97;;
8482;SDS011;4278;42.668;23.312;2022-12-18T15:01:25;14.37;;;7.53;;
8482;SDS011;4278;42.668;23.312;2022-12-18T15:03:55;14.97;;;8.37;;
8482;SDS011;4278;42.668;23.312;2022-12-18T15:06:28;15.53;;;8.53;;
8482;SDS011;4278;42.668;23.312;2022-12-18T15:08:59;17.07;;;9.10;;
8482;SDS011;4278;42.668;23.312;2022-12-18T15:11:29;18.77;;;9.83;;
8482;SDS011;4278;42.668;23.312;2022-12-18T15:16:52;15.17;;;8.87;;
8482;SDS011;4278;42.668;23.312;2022-12-18T15:19:21;17.07;;;9.07;;
8482;SDS011;4278;42.668;23.312;2022-12-18T15:21:52;17.43;;;10.00;;
8482;SDS011;4278;42.668;23.312;2022-12-18T15:24:24;18.53;;;9.13;;
8482;SDS011;4278;42.668;23.312;2022-12-18T15:26:55;17.00;;;8.60;;
8482;SDS011;4278;42.668;23.312;2022-12-18T15:29:22;15.90;;;8.10;;
8482;SDS011;4278;42.668;23.312;2022-12-18T15:32:00;15.30;;;8.53;;
8482;SDS011;4278;42.668;23.312;2022-12-18T15:34:28;19.87;;;9.00;;
8482;SDS011;4278;42.668;23.312;2022-12-18T15:36:56;14.17;;;8.20;;
8482;SDS011;4278;42.668;23.312;2022-12-18T15:39:24;22.73;;;9.90;;
8482;SDS011;4278;42.668;23.312;2022-12-18T15:41:51;18.20;;;8.17;;